createdAt,value
2023-12-29T00:00:08.011Z,4.35
2023-12-29T00:02:36.332Z,3.97
2023-12-29T00:05:05.415Z,4.22
2023-12-29T00:07:33.964Z,4.55
2023-12-29T00:10:02.487Z,4.40
2023-12-29T00:12:30.886Z,4.35
2023-12-29T00:14:59.346Z,10.13
2023-12-29T00:17:29.268Z,6.65
2023-12-29T00:19:57.776Z,7.20
2023-12-29T00:22:28.844Z,6.88
2023-12-29T00:24:57.542Z,6.30
2023-12-29T00:27:25.881Z,6.35
2023-12-29T00:29:54.249Z,5.03
2023-12-29T00:32:23.426Z,4.80
2023-12-29T00:34:53.355Z,4.88
2023-12-29T00:37:21.908Z,4.80
2023-12-29T00:39:50.328Z,4.90
2023-12-29T00:42:18.685Z,5.80
2023-12-29T00:44:46.933Z,5.63
2023-12-29T00:47:15.408Z,5.68
2023-12-29T00:49:43.891Z,5.13
2023-12-29T00:52:14.023Z,5.53
2023-12-29T00:54:43.682Z,4.57
2023-12-29T00:57:12.081Z,4.70
2023-12-29T00:59:41.246Z,4.80
2023-12-29T01:02:10.053Z,5.00
2023-12-29T01:04:40.463Z,4.47
2023-12-29T01:07:09.032Z,5.22
2023-12-29T01:09:41.709Z,4.70
2023-12-29T01:12:10.197Z,8.30
2023-12-29T01:14:38.471Z,4.63
2023-12-29T01:17:07.174Z,4.85
2023-12-29T01:19:36.055Z,5.07
2023-12-29T01:22:04.642Z,5.15
2023-12-29T01:24:40.161Z,5.00
2023-12-29T01:27:15.316Z,4.07
2023-12-29T01:29:43.760Z,4.80
2023-12-29T01:32:12.121Z,5.05
2023-12-29T01:34:40.920Z,4.78
2023-12-29T01:37:09.521Z,4.57
2023-12-29T01:39:38.047Z,4.43
2023-12-29T01:42:06.900Z,4.57
2023-12-29T01:44:36.650Z,4.38
2023-12-29T01:47:07.601Z,4.53
2023-12-29T01:49:36.794Z,4.53
2023-12-29T01:52:06.068Z,4.80
2023-12-29T01:54:39.622Z,4.38
2023-12-29T01:57:09.686Z,4.55
2023-12-29T01:59:40.175Z,4.57
2023-12-29T02:02:09.040Z,4.50
2023-12-29T02:04:39.694Z,4.35
2023-12-29T02:07:08.272Z,3.80
2023-12-29T02:09:37.469Z,3.92
2023-12-29T02:12:06.445Z,3.80
2023-12-29T02:14:35.231Z,4.13
2023-12-29T02:17:13.732Z,4.15
2023-12-29T02:19:45.951Z,4.45
2023-12-29T02:22:15.468Z,4.97
2023-12-29T02:24:48.746Z,4.35
2023-12-29T02:27:36.812Z,3.85
2023-12-29T02:30:13.113Z,4.28
2023-12-29T02:32:44.170Z,3.70
2023-12-29T02:35:19.872Z,3.50
2023-12-29T02:37:49.640Z,3.63
2023-12-29T02:40:20.891Z,3.70
2023-12-29T02:42:49.866Z,3.95
2023-12-29T02:45:18.442Z,3.70
2023-12-29T02:47:47.350Z,3.60
2023-12-29T02:50:16.119Z,3.90
2023-12-29T02:52:44.389Z,3.92
2023-12-29T02:55:13.136Z,3.88
2023-12-29T02:57:43.052Z,3.90
2023-12-29T03:00:11.991Z,3.53
2023-12-29T03:02:40.301Z,3.30
2023-12-29T03:05:09.631Z,3.35
2023-12-29T03:07:38.056Z,3.58
2023-12-29T03:10:07.283Z,3.22
2023-12-29T03:12:35.823Z,3.47
2023-12-29T03:15:06.443Z,4.15
2023-12-29T03:17:36.054Z,4.88
2023-12-29T03:20:06.334Z,4.70
2023-12-29T03:22:34.789Z,5.25
2023-12-29T03:25:03.065Z,4.63
2023-12-29T03:27:31.342Z,4.90
2023-12-29T03:29:59.848Z,5.05
2023-12-29T03:32:29.686Z,4.63
2023-12-29T03:34:58.015Z,4.93
2023-12-29T03:37:26.287Z,4.40
2023-12-29T03:39:54.720Z,4.53
2023-12-29T03:42:23.061Z,4.30
2023-12-29T03:44:51.436Z,4.30
2023-12-29T03:47:19.698Z,4.00
2023-12-29T03:49:49.440Z,4.00
2023-12-29T03:52:17.748Z,3.90
2023-12-29T03:54:46.087Z,4.28
2023-12-29T03:57:14.655Z,4.00
2023-12-29T03:59:43.036Z,4.15
2023-12-29T04:02:11.562Z,3.90
2023-12-29T04:04:40.765Z,4.55
2023-12-29T04:07:10.582Z,4.97
2023-12-29T04:09:38.987Z,4.10
2023-12-29T04:12:08.015Z,4.38
2023-12-29T04:14:36.377Z,4.13
2023-12-29T04:17:06.521Z,4.68
2023-12-29T04:19:35.190Z,4.18
2023-12-29T04:22:03.617Z,4.03
2023-12-29T04:24:33.609Z,4.15
2023-12-29T04:27:02.368Z,4.40
2023-12-29T04:29:30.690Z,4.70
2023-12-29T04:31:59.135Z,4.88
2023-12-29T04:34:27.519Z,4.43
2023-12-29T04:36:55.937Z,4.40
2023-12-29T04:39:24.243Z,4.45
2023-12-29T04:41:54.211Z,4.93
2023-12-29T04:44:22.426Z,5.20
2023-12-29T04:46:50.773Z,4.50
2023-12-29T04:49:19.346Z,4.50
2023-12-29T04:51:49.768Z,4.10
2023-12-29T04:54:18.133Z,4.18
2023-12-29T04:56:46.456Z,4.28
2023-12-29T04:59:16.215Z,4.40
2023-12-29T05:01:44.810Z,4.30
2023-12-29T05:04:13.232Z,3.50
2023-12-29T05:06:41.668Z,3.80
2023-12-29T05:09:09.981Z,3.70
2023-12-29T05:11:38.613Z,4.05
2023-12-29T05:14:06.929Z,4.63
2023-12-29T05:16:36.649Z,4.20
2023-12-29T05:19:05.363Z,4.93
2023-12-29T05:21:33.716Z,5.95
2023-12-29T05:24:02.225Z,5.80
2023-12-29T05:26:30.531Z,5.88
2023-12-29T05:28:58.807Z,6.10
2023-12-29T05:31:30.115Z,5.00
2023-12-29T05:34:00.029Z,4.28
2023-12-29T05:36:28.375Z,4.53
2023-12-29T05:38:58.405Z,4.40
2023-12-29T05:41:26.927Z,4.43
2023-12-29T05:43:55.273Z,4.20
2023-12-29T05:46:23.669Z,4.30
2023-12-29T05:48:53.765Z,4.43
2023-12-29T05:51:24.815Z,4.55
2023-12-29T05:53:53.144Z,4.70
2023-12-29T05:56:22.686Z,4.55
2023-12-29T05:58:51.277Z,4.80
2023-12-29T06:01:19.569Z,4.70
2023-12-29T06:03:47.892Z,4.55
2023-12-29T06:06:16.336Z,5.22
2023-12-29T06:08:46.180Z,4.80
2023-12-29T06:11:18.251Z,4.10
2023-12-29T06:13:46.703Z,4.40
2023-12-29T06:16:20.745Z,4.22
2023-12-29T06:18:49.549Z,4.47
2023-12-29T06:21:18.050Z,4.32
2023-12-29T06:23:47.821Z,4.45
2023-12-29T06:26:19.778Z,4.60
2023-12-29T06:28:48.384Z,4.70
2023-12-29T06:31:17.152Z,4.88
2023-12-29T06:33:46.041Z,4.68
2023-12-29T06:36:15.234Z,5.43
2023-12-29T06:38:47.186Z,5.28
2023-12-29T06:41:16.958Z,3.80
2023-12-29T06:43:45.262Z,4.63
2023-12-29T06:48:43.831Z,4.65
2023-12-29T06:51:17.852Z,4.57
2023-12-29T06:53:46.165Z,5.80
2023-12-29T06:56:17.004Z,6.65
2023-12-29T06:58:46.005Z,6.90
2023-12-29T07:01:14.575Z,4.38
2023-12-29T07:03:43.124Z,8.13
2023-12-29T07:06:12.405Z,7.60
2023-12-29T07:08:40.753Z,5.22
2023-12-29T07:11:12.814Z,6.05
2023-12-29T07:13:42.958Z,5.80
2023-12-29T07:16:11.648Z,4.60
2023-12-29T07:18:40.164Z,5.00
2023-12-29T07:21:08.634Z,5.22
2023-12-29T07:23:36.894Z,4.70
2023-12-29T07:26:05.924Z,4.72
2023-12-29T07:28:34.624Z,4.20
2023-12-29T07:31:05.295Z,5.10
2023-12-29T07:33:34.075Z,6.75
2023-12-29T07:36:02.684Z,5.85
2023-12-29T07:38:31.029Z,5.20
2023-12-29T07:40:59.550Z,5.47
2023-12-29T07:43:27.822Z,6.07
2023-12-29T07:45:56.106Z,6.70
2023-12-29T07:48:26.029Z,6.60
2023-12-29T07:50:54.410Z,4.88
2023-12-29T07:53:22.728Z,5.30
2023-12-29T07:55:51.591Z,5.80
2023-12-29T07:58:19.910Z,6.03
2023-12-29T08:00:48.848Z,8.35
2023-12-29T08:03:17.464Z,6.53
2023-12-29T08:05:48.240Z,5.55
2023-12-29T08:08:16.803Z,5.28
2023-12-29T08:10:45.337Z,5.03
2023-12-29T08:13:13.721Z,5.20
2023-12-29T08:15:42.436Z,4.60
2023-12-29T08:18:10.859Z,4.55
2023-12-29T08:20:39.253Z,6.43
2023-12-29T08:23:09.136Z,4.65
2023-12-29T08:25:38.324Z,4.72
2023-12-29T08:28:07.860Z,5.57
2023-12-29T08:30:38.635Z,4.93
2023-12-29T08:33:07.314Z,4.60
2023-12-29T08:35:35.567Z,5.10
2023-12-29T08:38:03.888Z,4.55
2023-12-29T08:40:33.696Z,5.63
2023-12-29T08:43:02.767Z,5.90
2023-12-29T08:45:31.372Z,5.93
2023-12-29T08:48:00.223Z,5.63
2023-12-29T08:50:28.661Z,5.97
2023-12-29T08:52:56.895Z,6.50
2023-12-29T08:55:25.320Z,5.13
2023-12-29T08:57:55.944Z,7.05
2023-12-29T09:00:24.398Z,6.00
2023-12-29T09:02:52.632Z,6.43
2023-12-29T09:05:20.967Z,4.60
2023-12-29T09:07:49.150Z,4.78
2023-12-29T09:10:17.422Z,4.80
2023-12-29T09:12:45.728Z,5.47
2023-12-29T09:15:15.430Z,6.10
2023-12-29T09:17:43.724Z,5.22
2023-12-29T09:20:12.848Z,6.18
2023-12-29T09:22:41.232Z,6.10
2023-12-29T09:25:10.197Z,6.35
2023-12-29T09:27:38.741Z,5.53
2023-12-29T09:30:08.557Z,6.35
2023-12-29T09:32:39.055Z,5.20
2023-12-29T09:35:07.745Z,6.70
2023-12-29T09:37:36.050Z,4.90
2023-12-29T09:40:04.839Z,6.40
2023-12-29T09:42:34.230Z,5.18
2023-12-29T09:45:05.113Z,7.45
2023-12-29T09:47:37.329Z,6.65
2023-12-29T09:50:08.301Z,6.22
2023-12-29T09:52:37.887Z,8.73
2023-12-29T09:55:07.471Z,8.63
2023-12-29T09:57:35.808Z,6.22
2023-12-29T10:00:04.886Z,6.28
2023-12-29T10:02:33.500Z,6.45
2023-12-29T10:05:05.414Z,6.10
2023-12-29T10:07:39.106Z,5.93
2023-12-29T10:10:08.931Z,5.50
2023-12-29T10:12:39.542Z,5.97
2023-12-29T10:15:16.782Z,6.28
2023-12-29T10:17:54.245Z,5.50
2023-12-29T10:20:39.847Z,5.40
2023-12-29T10:23:15.512Z,5.82
2023-12-29T10:25:43.762Z,5.80
2023-12-29T10:28:12.567Z,5.68
2023-12-29T10:30:41.828Z,5.65
2023-12-29T10:33:11.102Z,6.22
2023-12-29T10:35:40.464Z,6.22
2023-12-29T10:38:14.581Z,6.60
2023-12-29T10:40:44.374Z,5.85
2023-12-29T10:43:12.930Z,7.40
2023-12-29T10:45:41.364Z,6.25
2023-12-29T10:48:10.655Z,5.30
2023-12-29T10:50:47.015Z,6.70
2023-12-29T10:53:18.864Z,5.80
2023-12-29T10:55:47.516Z,6.00
2023-12-29T10:58:19.254Z,5.32
2023-12-29T11:00:47.841Z,6.00
2023-12-29T11:03:18.086Z,6.03
2023-12-29T11:05:46.523Z,6.88
2023-12-29T11:08:20.044Z,7.90
2023-12-29T11:10:50.643Z,6.95
2023-12-29T11:13:20.785Z,6.68
2023-12-29T11:15:50.495Z,6.40
2023-12-29T11:18:20.458Z,7.22
2023-12-29T11:20:49.166Z,6.70
2023-12-29T11:23:19.340Z,7.32
2023-12-29T11:25:48.253Z,7.22
2023-12-29T11:28:16.996Z,7.32
2023-12-29T11:30:45.641Z,6.53
2023-12-29T11:33:20.279Z,6.80
2023-12-29T11:35:53.724Z,6.05
2023-12-29T11:38:47.507Z,5.68
2023-12-29T11:41:24.007Z,7.00
2023-12-29T11:43:59.971Z,8.48
2023-12-29T11:46:38.564Z,5.95
2023-12-29T11:49:07.449Z,6.28
2023-12-29T11:51:38.086Z,6.95
2023-12-29T11:54:09.550Z,4.78
2023-12-29T11:56:39.698Z,5.15
2023-12-29T11:59:21.865Z,5.20
2023-12-29T12:01:51.797Z,5.32
2023-12-29T12:04:41.867Z,5.75
2023-12-29T12:07:15.443Z,6.15
2023-12-29T12:09:45.659Z,11.18
2023-12-29T12:12:14.887Z,5.22
2023-12-29T12:14:47.245Z,5.40
2023-12-29T12:17:30.006Z,9.13
2023-12-29T12:20:01.016Z,5.35
2023-12-29T12:22:34.054Z,4.30
2023-12-29T12:25:06.052Z,6.45
2023-12-29T12:27:34.497Z,4.60
2023-12-29T12:30:02.914Z,4.43
2023-12-29T12:32:32.110Z,4.57
2023-12-29T12:35:00.700Z,4.40
2023-12-29T12:37:30.896Z,4.05
2023-12-29T12:39:59.332Z,4.18
2023-12-29T12:42:29.645Z,5.60
2023-12-29T12:45:05.684Z,4.70
2023-12-29T12:47:37.485Z,4.20
2023-12-29T12:50:08.414Z,4.30
2023-12-29T12:52:38.765Z,4.57
2023-12-29T12:55:08.996Z,4.80
2023-12-29T12:57:39.506Z,4.72
2023-12-29T13:00:10.572Z,5.15
2023-12-29T13:02:39.760Z,5.18
2023-12-29T13:05:09.723Z,5.05
2023-12-29T13:07:38.284Z,5.05
2023-12-29T13:10:08.250Z,5.05
2023-12-29T13:12:36.650Z,5.00
2023-12-29T13:15:11.344Z,4.68
2023-12-29T13:17:39.672Z,4.75
2023-12-29T13:20:09.449Z,4.57
2023-12-29T13:22:38.562Z,4.55
2023-12-29T13:25:09.657Z,3.97
2023-12-29T13:27:41.371Z,4.03
2023-12-29T13:30:13.688Z,4.35
2023-12-29T13:32:43.023Z,4.60
2023-12-29T13:35:19.212Z,4.63
2023-12-29T13:37:54.183Z,16.65
2023-12-29T13:40:28.956Z,4.07
2023-12-29T13:43:02.426Z,5.00
2023-12-29T13:45:33.569Z,4.30
2023-12-29T13:48:04.342Z,4.22
2023-12-29T13:50:32.879Z,4.13
2023-12-29T13:53:01.043Z,4.43
2023-12-29T13:55:29.990Z,4.78
2023-12-29T13:57:58.449Z,3.85
2023-12-29T14:00:30.257Z,3.83
2023-12-29T14:03:08.524Z,3.97
2023-12-29T14:05:41.906Z,3.58
2023-12-29T14:08:20.002Z,3.28
2023-12-29T14:10:49.127Z,3.40
2023-12-29T14:13:19.216Z,3.80
2023-12-29T14:15:53.101Z,3.00
2023-12-29T14:18:48.126Z,3.25
2023-12-29T14:21:26.738Z,2.90
2023-12-29T14:24:11.908Z,2.83
2023-12-29T14:26:41.748Z,2.67
2023-12-29T14:29:11.479Z,2.50
2023-12-29T14:31:41.822Z,2.80
2023-12-29T14:34:13.106Z,3.00
2023-12-29T14:36:42.860Z,3.03
2023-12-29T14:39:12.659Z,4.00
2023-12-29T14:41:41.723Z,4.40
2023-12-29T14:44:10.246Z,4.35
2023-12-29T14:46:39.201Z,4.45
2023-12-29T14:49:09.052Z,4.35
2023-12-29T14:51:39.129Z,4.40
2023-12-29T14:54:08.116Z,4.30
2023-12-29T14:56:36.476Z,3.95
2023-12-29T14:59:07.104Z,3.97
2023-12-29T15:01:36.010Z,3.50
2023-12-29T15:04:05.556Z,3.65
2023-12-29T15:06:33.999Z,4.53
2023-12-29T15:09:04.421Z,3.70
2023-12-29T15:11:32.685Z,3.40
2023-12-29T15:14:00.911Z,3.45
2023-12-29T15:16:29.268Z,2.95
2023-12-29T15:18:57.789Z,3.40
2023-12-29T15:21:26.452Z,3.92
2023-12-29T15:23:55.273Z,3.80
2023-12-29T15:26:25.060Z,3.97
2023-12-29T15:28:53.567Z,4.00
2023-12-29T15:31:21.966Z,3.72
2023-12-29T15:33:50.418Z,3.97
2023-12-29T15:36:21.958Z,4.70
2023-12-29T15:38:50.398Z,4.60
2023-12-29T15:41:18.618Z,6.10
2023-12-29T15:43:48.123Z,5.18
2023-12-29T15:46:16.768Z,4.50
2023-12-29T15:48:45.556Z,3.95
2023-12-29T15:51:15.027Z,3.55
2023-12-29T15:53:43.186Z,4.05
2023-12-29T15:56:19.664Z,5.00
2023-12-29T15:58:49.687Z,4.15
2023-12-29T16:01:26.918Z,7.80
2023-12-29T16:03:55.417Z,6.78
2023-12-29T16:06:24.656Z,5.22
2023-12-29T16:08:55.540Z,5.50
2023-12-29T16:11:25.197Z,8.82
2023-12-29T16:13:55.756Z,7.80
2023-12-29T16:16:28.587Z,5.55
2023-12-29T16:18:56.788Z,6.30
2023-12-29T16:21:25.115Z,5.15
2023-12-29T16:23:53.391Z,4.28
2023-12-29T16:26:28.041Z,5.13
2023-12-29T16:29:05.713Z,7.78
2023-12-29T16:31:35.015Z,6.93
2023-12-29T16:34:03.401Z,5.45
2023-12-29T16:36:32.365Z,4.93
2023-12-29T16:39:00.610Z,11.82
2023-12-29T16:41:28.807Z,7.32
2023-12-29T16:43:57.818Z,5.63
2023-12-29T16:46:27.510Z,7.15
2023-12-29T16:48:55.838Z,8.32
2023-12-29T16:51:24.174Z,16.83
2023-12-29T16:53:52.409Z,9.13
2023-12-29T16:56:20.678Z,6.30
2023-12-29T16:58:48.970Z,5.30
2023-12-29T17:01:19.052Z,6.32
2023-12-29T17:03:49.097Z,4.97
2023-12-29T17:06:17.443Z,4.63
2023-12-29T17:08:45.711Z,4.50
2023-12-29T17:11:14.045Z,6.35
2023-12-29T17:13:42.364Z,8.23
2023-12-29T17:16:12.868Z,8.48
2023-12-29T17:18:41.715Z,18.42
2023-12-29T17:21:12.836Z,18.00
2023-12-29T17:23:41.035Z,4.28
2023-12-29T17:26:15.577Z,4.47
2023-12-29T17:28:43.896Z,4.97
2023-12-29T17:31:12.964Z,4.85
2023-12-29T17:33:41.923Z,4.57
2023-12-29T17:36:12.126Z,4.57
2023-12-29T17:38:43.038Z,5.28
2023-12-29T17:41:12.368Z,4.80
2023-12-29T17:43:40.598Z,4.65
2023-12-29T17:46:09.947Z,4.55
2023-12-29T17:48:38.315Z,4.35
2023-12-29T17:51:08.595Z,5.07
2023-12-29T17:53:38.697Z,5.70
2023-12-29T17:56:08.562Z,5.47
2023-12-29T17:58:38.369Z,5.60
2023-12-29T18:01:06.827Z,4.95
2023-12-29T18:03:35.254Z,5.38
2023-12-29T18:06:07.447Z,5.65
2023-12-29T18:08:35.746Z,5.40
2023-12-29T18:11:07.283Z,6.53
2023-12-29T18:13:36.545Z,5.45
2023-12-29T18:16:10.641Z,6.70
2023-12-29T18:18:40.223Z,15.20
2023-12-29T18:21:09.787Z,12.68
2023-12-29T18:23:37.914Z,12.20
2023-12-29T18:26:07.635Z,14.60
2023-12-29T18:28:39.186Z,7.78
2023-12-29T18:31:07.590Z,11.07
2023-12-29T18:33:37.783Z,8.60
2023-12-29T18:36:07.149Z,5.82
2023-12-29T18:38:35.724Z,6.35
2023-12-29T18:41:08.847Z,5.78
2023-12-29T18:43:37.562Z,6.30
2023-12-29T18:46:06.673Z,6.45
2023-12-29T18:48:35.201Z,6.18
2023-12-29T18:51:04.377Z,10.35
2023-12-29T18:53:32.753Z,10.52
2023-12-29T18:56:00.949Z,9.15
2023-12-29T18:58:30.704Z,7.97
2023-12-29T19:01:04.278Z,8.00
2023-12-29T19:03:33.700Z,5.95
2023-12-29T19:06:01.875Z,6.75
2023-12-29T19:08:30.234Z,5.25
2023-12-29T19:10:58.807Z,4.57
2023-12-29T19:13:27.196Z,3.42
2023-12-29T19:16:03.758Z,3.35
2023-12-29T19:18:32.136Z,5.20
2023-12-29T19:21:00.629Z,8.57
2023-12-29T19:23:29.669Z,10.02
2023-12-29T19:25:57.920Z,9.40
2023-12-29T19:28:27.259Z,12.15
2023-12-29T19:30:55.579Z,10.23
2023-12-29T19:33:25.517Z,9.23
2023-12-29T19:35:55.350Z,9.45
2023-12-29T19:38:24.302Z,7.75
2023-12-29T19:40:54.303Z,7.18
2023-12-29T19:43:23.406Z,6.50
2023-12-29T19:45:51.677Z,7.47
2023-12-29T19:48:19.986Z,6.78
2023-12-29T19:50:49.676Z,5.50
2023-12-29T19:53:20.700Z,4.30
2023-12-29T19:55:50.709Z,5.05
2023-12-29T19:58:18.991Z,5.05
2023-12-29T20:00:47.534Z,7.05
2023-12-29T20:03:15.856Z,7.05
2023-12-29T20:05:44.640Z,6.85
2023-12-29T20:08:14.538Z,10.50
2023-12-29T20:10:42.707Z,10.77
2023-12-29T20:13:11.619Z,18.33
2023-12-29T20:15:40.088Z,21.92
2023-12-29T20:18:08.433Z,20.20
2023-12-29T20:20:36.767Z,17.42
2023-12-29T20:23:05.394Z,9.70
2023-12-29T20:25:35.057Z,8.02
2023-12-29T20:28:03.919Z,6.30
2023-12-29T20:30:32.332Z,6.90
2023-12-29T20:33:01.761Z,7.88
2023-12-29T20:35:30.154Z,8.20
2023-12-29T20:37:58.269Z,8.13
2023-12-29T20:40:28.026Z,8.48
2023-12-29T20:42:57.868Z,7.90
2023-12-29T20:45:26.072Z,7.80
2023-12-29T20:47:54.898Z,7.30
2023-12-29T20:50:23.257Z,7.57
2023-12-29T20:52:51.417Z,10.43
2023-12-29T20:55:19.650Z,9.93
2023-12-29T20:57:47.894Z,25.20
2023-12-29T21:00:18.571Z,11.07
2023-12-29T21:02:47.061Z,8.43
2023-12-29T21:05:18.042Z,8.95
2023-12-29T21:07:47.874Z,8.73
2023-12-29T21:10:16.349Z,7.35
2023-12-29T21:12:44.609Z,8.93
2023-12-29T21:15:13.180Z,11.63
2023-12-29T21:17:43.021Z,10.93
2023-12-29T21:20:14.755Z,17.63
2023-12-29T21:22:44.570Z,17.92
2023-12-29T21:25:13.080Z,12.77
2023-12-29T21:27:41.813Z,9.90
2023-12-29T21:30:12.730Z,8.35
2023-12-29T21:32:43.398Z,18.05
2023-12-29T21:35:11.817Z,9.20
2023-12-29T21:37:40.458Z,13.85
2023-12-29T21:40:10.063Z,14.07
2023-12-29T21:42:39.243Z,9.98
2023-12-29T21:45:11.254Z,9.65
2023-12-29T21:47:42.511Z,11.38
2023-12-29T21:50:13.029Z,10.63
2023-12-29T21:52:41.557Z,10.05
2023-12-29T21:55:09.960Z,9.23
2023-12-29T21:57:38.309Z,45.00
2023-12-29T22:00:08.310Z,17.30
2023-12-29T22:02:36.521Z,16.85
2023-12-29T22:05:05.290Z,9.23
2023-12-29T22:07:36.758Z,9.27
2023-12-29T22:10:06.634Z,8.25
2023-12-29T22:12:34.868Z,9.70
2023-12-29T22:15:03.152Z,14.65
2023-12-29T22:17:31.314Z,14.25
2023-12-29T22:19:59.809Z,7.35
2023-12-29T22:22:28.134Z,6.10
2023-12-29T22:24:57.874Z,6.80
2023-12-29T22:27:27.107Z,7.85
2023-12-29T22:29:55.390Z,7.05
2023-12-29T22:32:23.788Z,7.18
2023-12-29T22:34:51.997Z,6.82
2023-12-29T22:37:20.298Z,6.97
2023-12-29T22:39:48.560Z,6.53
2023-12-29T22:42:18.219Z,7.13
2023-12-29T22:44:46.382Z,7.20
2023-12-29T22:47:14.576Z,7.53
2023-12-29T22:49:42.794Z,8.27
2023-12-29T22:52:10.996Z,8.25
2023-12-29T22:54:39.131Z,7.53
2023-12-29T22:57:07.371Z,8.15
2023-12-29T22:59:38.567Z,8.15
2023-12-29T23:02:07.171Z,8.70
2023-12-29T23:04:35.596Z,8.55
2023-12-29T23:07:04.677Z,7.85
2023-12-29T23:09:36.097Z,8.35
2023-12-29T23:12:05.185Z,8.05
2023-12-29T23:14:33.860Z,8.90
2023-12-29T23:17:07.957Z,9.48
2023-12-29T23:19:37.091Z,9.52
2023-12-29T23:22:05.572Z,9.02
2023-12-29T23:24:33.769Z,8.63
2023-12-29T23:27:02.169Z,8.32
2023-12-29T23:29:30.328Z,8.48
2023-12-29T23:31:58.433Z,7.93
2023-12-29T23:34:28.355Z,7.80
2023-12-29T23:36:56.759Z,7.30
2023-12-29T23:39:24.965Z,7.85
2023-12-29T23:41:53.279Z,8.27
2023-12-29T23:44:21.611Z,7.75
2023-12-29T23:46:49.736Z,11.02
2023-12-29T23:49:18.052Z,8.52
2023-12-29T23:51:47.879Z,9.10
2023-12-29T23:54:16.476Z,8.48
2023-12-29T23:56:44.819Z,7.95
2023-12-29T23:59:12.971Z,8.23
